Time;durP1;ratioP1;P1;durP2;ratioP2;P2;SDS_P1;SDS_P2;PMS_P1;PMS_P2;Temp;Humidity;BMP_temperature;BMP_pressure;BME280_temperature;BME280_humidity;BME280_pressure;Samples;Min_cycle;Max_cycle;Signal;HPM_P1;HPM_P2
2021/01/09 00:00:41;;;;;;;77.22;35.42;;;;;;;;;;5054921;28;20039;-70
2021/01/09 00:03:07;;;;;;;74.10;35.90;;;;;;;;;;5071627;28;20025;-72
2021/01/09 00:05:32;;;;;;;75.18;35.92;;;;;;;;;;5072411;28;20029;-73
2021/01/09 00:07:58;;;;;;;74.57;34.17;;;;;;;;;;5072098;28;20058;-73
2021/01/09 00:10:23;;;;;;;68.25;32.95;;;;;;;;;;5077073;28;20041;-72
2021/01/09 00:12:49;;;;;;;64.40;31.63;;;;;;;;;;5075577;28;20032;-73
2021/01/09 00:15:14;;;;;;;70.43;33.17;;;;;;;;;;5076962;28;20044;-73
2021/01/09 00:17:41;;;;;;;68.22;30.98;;;;;;;;;;5076880;28;20463;-73
2021/01/09 00:20:10;;;;;;;65.57;30.88;;;;;;;;;;5076628;28;20044;-73
2021/01/09 00:22:36;;;;;;;64.40;31.90;;;;;;;;;;5075813;28;20028;-73
2021/01/09 00:25:04;;;;;;;63.88;31.05;;;;;;;;;;5076576;28;20067;-72
2021/01/09 00:27:29;;;;;;;63.85;29.77;;;;;;;;;;5076461;28;20032;-72
2021/01/09 00:29:55;;;;;;;61.92;29.05;;;;;;;;;;5076609;28;20526;-72
2021/01/09 00:32:20;;;;;;;63.97;30.10;;;;;;;;;;5076123;28;20037;-73
2021/01/09 00:34:47;;;;;;;62.83;29.50;;;;;;;;;;5058756;28;20040;-73
2021/01/09 00:37:12;;;;;;;56.85;27.50;;;;;;;;;;5075093;28;20491;-72
2021/01/09 00:39:38;;;;;;;59.33;27.83;;;;;;;;;;5076469;28;20056;-72
2021/01/09 00:42:03;;;;;;;50.90;25.65;;;;;;;;;;5076544;28;20033;-72
2021/01/09 00:44:29;;;;;;;57.75;27.63;;;;;;;;;;5076015;28;20025;-72
2021/01/09 00:46:55;;;;;;;51.30;26.33;;;;;;;;;;5076158;28;20044;-72
2021/01/09 00:49:21;;;;;;;49.78;25.50;;;;;;;;;;5076401;28;20039;-72
2021/01/09 00:51:46;;;;;;;55.00;26.75;;;;;;;;;;5074964;28;20511;-72
2021/01/09 00:54:13;;;;;;;58.63;26.77;;;;;;;;;;5075961;28;20032;-72
2021/01/09 00:56:39;;;;;;;53.47;26.50;;;;;;;;;;5076080;28;20067;-72
2021/01/09 00:59:04;;;;;;;46.63;24.80;;;;;;;;;;5075640;28;20037;-72
2021/01/09 01:01:30;;;;;;;48.35;24.05;;;;;;;;;;5074761;28;20025;-72
2021/01/09 01:03:55;;;;;;;43.80;22.40;;;;;;;;;;5074471;28;20083;-72
2021/01/09 01:06:24;;;;;;;50.45;24.33;;;;;;;;;;5074593;28;20032;-72
2021/01/09 01:08:50;;;;;;;48.90;22.30;;;;;;;;;;5075584;28;20386;-72
2021/01/09 01:11:22;;;;;;;47.58;23.27;;;;;;;;;;5057963;28;20033;-72
2021/01/09 01:13:47;;;;;;;44.00;23.25;;;;;;;;;;5074510;28;20033;-72
2021/01/09 01:16:16;;;;;;;44.78;22.45;;;;;;;;;;5075696;28;20024;-72
2021/01/09 01:18:41;;;;;;;45.42;24.75;;;;;;;;;;5082701;28;20036;-72
2021/01/09 01:21:07;;;;;;;46.53;24.55;;;;;;;;;;5095077;28;20047;-70
2021/01/09 01:23:33;;;;;;;45.60;23.38;;;;;;;;;;5077214;28;20048;-71
2021/01/09 01:25:58;;;;;;;44.08;23.05;;;;;;;;;;5075712;28;20028;-71
2021/01/09 01:28:23;;;;;;;44.08;23.00;;;;;;;;;;5091038;28;20503;-71
2021/01/09 01:30:49;;;;;;;47.20;23.67;;;;;;;;;;5095863;28;20031;-74
2021/01/09 01:33:15;;;;;;;38.30;21.70;;;;;;;;;;5090845;28;20071;-72
2021/01/09 01:35:41;;;;;;;43.20;23.23;;;;;;;;;;5075402;28;20110;-72
2021/01/09 01:38:06;;;;;;;39.35;22.55;;;;;;;;;;5058158;28;20037;-72
2021/01/09 01:40:32;;;;;;;39.83;22.65;;;;;;;;;;5053950;28;20041;-72
2021/01/09 01:42:57;;;;;;;40.40;21.63;;;;;;;;;;5055034;28;20103;-72
2021/01/09 01:45:23;;;;;;;38.42;20.95;;;;;;;;;;5055471;28;20120;-71
2021/01/09 01:47:48;;;;;;;41.47;22.45;;;;;;;;;;5054997;28;20064;-72
2021/01/09 01:50:15;;;;;;;39.83;22.20;;;;;;;;;;5070396;28;20021;-71
2021/01/09 01:52:41;;;;;;;41.33;22.88;;;;;;;;;;5055073;28;20041;-71
2021/01/09 01:55:07;;;;;;;37.85;22.35;;;;;;;;;;5054809;28;20083;-71
2021/01/09 01:57:33;;;;;;;43.85;23.60;;;;;;;;;;5054720;28;20376;-72
2021/01/09 01:59:58;;;;;;;43.78;23.63;;;;;;;;;;5054932;28;20037;-72
2021/01/09 02:02:32;;;;;;;35.92;20.90;;;;;;;;;;5054403;28;20041;-79
2021/01/09 02:04:59;;;;;;;41.90;23.20;;;;;;;;;;5053073;28;20048;-79
2021/01/09 02:07:27;;;;;;;41.72;22.05;;;;;;;;;;5053387;28;20025;-78
2021/01/09 02:09:54;;;;;;;40.33;22.63;;;;;;;;;;5052070;28;20602;-78
2021/01/09 02:12:38;;;;;;;39.72;22.42;;;;;;;;;;5051683;28;20514;-77
2021/01/09 02:15:05;;;;;;;38.65;21.63;;;;;;;;;;5053752;28;20550;-77
2021/01/09 02:17:31;;;;;;;40.65;22.25;;;;;;;;;;5053116;28;20033;-78
2021/01/09 02:19:58;;;;;;;39.78;22.85;;;;;;;;;;5052852;28;20041;-78
2021/01/09 02:22:25;;;;;;;40.75;22.45;;;;;;;;;;5054289;28;20057;-79
2021/01/09 02:24:51;;;;;;;37.15;21.25;;;;;;;;;;5055955;28;20053;-79
2021/01/09 02:27:17;;;;;;;39.50;22.02;;;;;;;;;;5056356;28;20032;-79
2021/01/09 02:29:51;;;;;;;38.17;21.85;;;;;;;;;;5070650;28;20056;-78
2021/01/09 02:32:23;;;;;;;41.17;22.40;;;;;;;;;;5063172;28;20051;-73
2021/01/09 02:34:50;;;;;;;37.78;22.48;;;;;;;;;;5072576;28;20041;-74
2021/01/09 02:37:16;;;;;;;32.05;20.55;;;;;;;;;;5073800;28;20075;-74
2021/01/09 02:39:42;;;;;;;37.72;21.50;;;;;;;;;;5074151;28;20060;-74
2021/01/09 02:42:08;;;;;;;35.67;21.75;;;;;;;;;;5074041;28;20089;-73
2021/01/09 02:44:34;;;;;;;33.38;19.42;;;;;;;;;;5056055;28;20484;-73
2021/01/09 02:46:59;;;;;;;34.05;21.10;;;;;;;;;;5073942;28;20487;-73
2021/01/09 02:49:25;;;;;;;35.40;19.70;;;;;;;;;;5073834;28;20032;-77
2021/01/09 02:51:51;;;;;;;34.95;20.95;;;;;;;;;;5055844;28;20059;-78
2021/01/09 02:54:26;;;;;;;35.78;20.25;;;;;;;;;;5071020;28;20445;-79
2021/01/09 02:56:54;;;;;;;32.45;20.50;;;;;;;;;;5069675;28;20032;-79
2021/01/09 02:59:23;;;;;;;36.92;20.40;;;;;;;;;;5069340;28;20523;-79
2021/01/09 03:01:49;;;;;;;33.10;18.73;;;;;;;;;;5069418;28;20508;-80
2021/01/09 03:04:15;;;;;;;35.60;21.13;;;;;;;;;;5070638;28;20021;-80
2021/01/09 03:06:42;;;;;;;34.10;19.88;;;;;;;;;;5070561;28;20035;-79
2021/01/09 03:09:11;;;;;;;34.25;20.35;;;;;;;;;;5069401;28;20070;-79
2021/01/09 03:11:39;;;;;;;34.20;19.42;;;;;;;;;;5069597;28;20040;-79
2021/01/09 03:14:37;;;;;;;33.92;19.85;;;;;;;;;;5052651;28;20406;-80
2021/01/09 03:17:07;;;;;;;31.10;19.05;;;;;;;;;;5070915;28;20056;-80
2021/01/09 03:19:33;;;;;;;29.25;18.30;;;;;;;;;;5053277;28;20029;-80
2021/01/09 03:22:01;;;;;;;32.00;19.20;;;;;;;;;;5070913;28;20025;-80
2021/01/09 03:24:28;;;;;;;28.00;18.50;;;;;;;;;;5070645;28;20027;-79
2021/01/09 03:26:53;;;;;;;29.63;17.70;;;;;;;;;;5070368;28;20024;-77
2021/01/09 03:29:23;;;;;;;28.42;18.25;;;;;;;;;;5068833;28;20427;-79
2021/01/09 03:31:48;;;;;;;30.15;17.98;;;;;;;;;;5070150;28;20082;-79
2021/01/09 03:34:14;;;;;;;26.48;16.25;;;;;;;;;;5051955;28;20021;-78
2021/01/09 03:36:55;;;;;;;26.20;17.17;;;;;;;;;;5069770;28;20037;-79
2021/01/09 03:39:26;;;;;;;33.88;20.08;;;;;;;;;;5069794;28;20383;-79
2021/01/09 03:41:53;;;;;;;33.50;19.17;;;;;;;;;;5068863;28;20056;-79
2021/01/09 03:44:31;;;;;;;31.95;18.38;;;;;;;;;;5069836;28;20021;-78
2021/01/09 03:46:59;;;;;;;32.55;18.73;;;;;;;;;;5069597;28;20032;-79
2021/01/09 03:49:26;;;;;;;31.45;18.10;;;;;;;;;;5068642;28;20017;-78
2021/01/09 03:51:53;;;;;;;29.15;18.98;;;;;;;;;;5068071;28;20051;-79
2021/01/09 03:54:19;;;;;;;32.17;18.75;;;;;;;;;;5069369;28;20040;-79
2021/01/09 03:56:49;;;;;;;32.10;18.55;;;;;;;;;;5069667;28;20487;-79
2021/01/09 03:59:14;;;;;;;28.40;17.45;;;;;;;;;;5068087;28;20470;-79
2021/01/09 04:01:40;;;;;;;27.48;17.65;;;;;;;;;;5068047;28;20104;-78
2021/01/09 04:04:11;;;;;;;31.50;18.70;;;;;;;;;;5065325;28;20021;-78
2021/01/09 04:06:39;;;;;;;26.50;16.85;;;;;;;;;;5056019;28;20040;-79
2021/01/09 04:09:07;;;;;;;31.40;17.77;;;;;;;;;;5056486;28;20041;-78
2021/01/09 04:11:33;;;;;;;26.70;16.15;;;;;;;;;;5056137;28;20482;-79
2021/01/09 04:14:04;;;;;;;23.27;14.88;;;;;;;;;;5056394;28;20013;-80
2021/01/09 04:16:38;;;;;;;26.67;16.90;;;;;;;;;;5055985;28;20107;-79
2021/01/09 04:19:04;;;;;;;24.95;16.23;;;;;;;;;;5055686;28;20029;-71
2021/01/09 04:21:29;;;;;;;20.45;13.88;;;;;;;;;;5054013;28;20040;-70
2021/01/09 04:23:55;;;;;;;24.88;15.30;;;;;;;;;;5055331;28;20467;-69
2021/01/09 04:26:20;;;;;;;28.30;16.67;;;;;;;;;;5054239;28;20092;-69
2021/01/09 04:28:46;;;;;;;25.90;15.88;;;;;;;;;;5055427;28;20028;-69
2021/01/09 04:31:15;;;;;;;26.75;16.83;;;;;;;;;;5054277;28;20075;-69
2021/01/09 04:33:53;;;;;;;24.67;15.73;;;;;;;;;;5055187;28;20124;-78
2021/01/09 04:36:24;;;;;;;24.85;15.20;;;;;;;;;;5054469;28;20048;-80
2021/01/09 04:38:54;;;;;;;27.67;17.50;;;;;;;;;;5055708;28;20505;-79
2021/01/09 04:41:20;;;;;;;;;;;;;;;;;;5055750;28;20021;-77
2021/01/09 04:43:50;;;;;;;25.98;15.93;;;;;;;;;;5054434;28;20038;-77
2021/01/09 04:46:17;;;;;;;26.35;16.50;;;;;;;;;;5054360;28;20032;-77
2021/01/09 04:48:49;;;;;;;25.30;16.73;;;;;;;;;;5055412;28;20021;-77
2021/01/09 04:51:18;;;;;;;24.88;16.75;;;;;;;;;;5055837;28;20118;-80
2021/01/09 04:53:44;;;;;;;23.55;16.20;;;;;;;;;;5053513;28;20060;-80
2021/01/09 04:56:11;;;;;;;25.48;15.88;;;;;;;;;;5055656;28;20029;-80
2021/01/09 04:58:53;;;;;;;26.30;16.38;;;;;;;;;;5055800;28;20147;-80
2021/01/09 05:04:34;;;;;;;25.05;16.02;;;;;;;;;;5055076;28;20479;-77
2021/01/09 05:06:59;;;;;;;25.23;16.65;;;;;;;;;;5055236;28;20071;-76
2021/01/09 05:09:25;;;;;;;24.17;15.90;;;;;;;;;;5055405;28;20051;-76
2021/01/09 05:11:55;;;;;;;24.30;16.10;;;;;;;;;;5055427;28;20032;-77
2021/01/09 05:14:20;;;;;;;26.88;16.33;;;;;;;;;;5055126;28;20349;-77
2021/01/09 05:16:45;;;;;;;26.63;16.63;;;;;;;;;;5053737;28;20044;-77
2021/01/09 05:19:11;;;;;;;28.80;17.48;;;;;;;;;;5054687;28;20014;-76
2021/01/09 05:21:37;;;;;;;26.17;16.73;;;;;;;;;;5052969;28;20036;-76
2021/01/09 05:24:03;;;;;;;28.05;17.63;;;;;;;;;;5054567;28;20017;-76
2021/01/09 05:26:28;;;;;;;26.42;16.88;;;;;;;;;;5054768;28;20033;-76
2021/01/09 05:28:55;;;;;;;29.23;16.85;;;;;;;;;;5053056;28;20391;-76
2021/01/09 05:31:22;;;;;;;26.95;17.48;;;;;;;;;;5054294;28;20102;-76
2021/01/09 05:33:50;;;;;;;28.75;16.88;;;;;;;;;;5054578;28;20021;-77
2021/01/09 05:36:17;;;;;;;30.40;17.85;;;;;;;;;;5053351;28;20111;-77
2021/01/09 05:38:43;;;;;;;27.00;18.13;;;;;;;;;;5054322;28;20116;-79
2021/01/09 05:41:10;;;;;;;27.90;17.08;;;;;;;;;;5054621;28;20024;-79
2021/01/09 05:43:37;;;;;;;26.90;17.27;;;;;;;;;;5053358;28;20029;-78
2021/01/09 05:46:04;;;;;;;26.45;17.02;;;;;;;;;;5054679;28;20029;-80
2021/01/09 05:48:30;;;;;;;30.02;18.27;;;;;;;;;;5054146;28;20090;-79
2021/01/09 05:51:06;;;;;;;29.58;17.38;;;;;;;;;;5054280;28;20029;-80
2021/01/09 05:53:45;;;;;;;31.05;19.58;;;;;;;;;;5050015;28;20052;-80
2021/01/09 05:56:12;;;;;;;34.40;20.60;;;;;;;;;;5054253;28;20025;-80
2021/01/09 05:58:45;;;;;;;30.58;19.45;;;;;;;;;;5053912;28;20021;-79
2021/01/09 06:01:25;;;;;;;29.05;19.10;;;;;;;;;;5052613;28;20463;-80
2021/01/09 06:04:17;;;;;;;27.50;18.27;;;;;;;;;;5053904;28;20387;-80
2021/01/09 06:07:01;;;;;;;28.98;17.40;;;;;;;;;;5044898;28;20388;-79
2021/01/09 06:09:35;;;;;;;28.45;17.63;;;;;;;;;;5053540;28;20028;-80
2021/01/09 06:12:09;;;;;;;25.48;16.75;;;;;;;;;;5053486;28;20029;-79
2021/01/09 06:14:42;;;;;;;26.40;17.40;;;;;;;;;;5052070;28;20067;-79
2021/01/09 06:17:21;;;;;;;23.38;15.82;;;;;;;;;;5053922;28;20067;-79
2021/01/09 06:19:47;;;;;;;24.02;16.80;;;;;;;;;;5053257;28;20039;-78
2021/01/09 06:22:13;;;;;;;22.58;15.55;;;;;;;;;;5053577;28;20029;-79
2021/01/09 06:24:43;;;;;;;25.05;16.50;;;;;;;;;;5035683;28;20029;-77
2021/01/09 06:27:16;;;;;;;21.35;15.18;;;;;;;;;;5050372;28;20483;-77
2021/01/09 06:29:42;;;;;;;24.00;16.73;;;;;;;;;;5051209;28;20429;-77
2021/01/09 06:32:08;;;;;;;24.23;16.98;;;;;;;;;;5051660;28;20040;-77
2021/01/09 06:34:38;;;;;;;31.52;20.05;;;;;;;;;;5052333;28;20021;-77
2021/01/09 06:37:04;;;;;;;30.52;20.25;;;;;;;;;;5053359;28;20017;-78
2021/01/09 06:39:44;;;;;;;31.80;20.88;;;;;;;;;;5053090;28;20021;-79
2021/01/09 06:42:10;;;;;;;34.60;22.03;;;;;;;;;;5053170;28;20076;-80
2021/01/09 06:44:52;;;;;;;31.38;22.17;;;;;;;;;;5052060;28;20047;-80
2021/01/09 06:47:28;;;;;;;33.33;21.90;;;;;;;;;;5030936;28;20059;-79
2021/01/09 06:50:16;;;;;;;33.55;21.58;;;;;;;;;;5041193;28;20399;-80
2021/01/09 06:52:58;;;;;;;32.28;21.50;;;;;;;;;;5044081;28;20488;-79
2021/01/09 06:55:36;;;;;;;31.40;20.58;;;;;;;;;;5035667;28;20495;-79
2021/01/09 06:58:07;;;;;;;32.92;20.63;;;;;;;;;;5048784;28;20108;-79
2021/01/09 07:00:33;;;;;;;31.95;21.05;;;;;;;;;;5052768;28;20017;-71
2021/01/09 07:03:11;;;;;;;32.13;20.88;;;;;;;;;;5052158;28;20421;-71
2021/01/09 07:05:47;;;;;;;32.88;19.73;;;;;;;;;;5052795;28;20082;-71
2021/01/09 07:08:19;;;;;;;33.30;21.40;;;;;;;;;;5052864;28;20033;-72
2021/01/09 07:10:48;;;;;;;34.60;21.80;;;;;;;;;;5053124;28;20116;-71
2021/01/09 07:13:14;;;;;;;35.10;23.25;;;;;;;;;;5050992;28;20020;-71
2021/01/09 07:15:40;;;;;;;34.70;22.90;;;;;;;;;;5051472;28;20349;-71
2021/01/09 07:18:06;;;;;;;33.85;21.80;;;;;;;;;;5052006;28;20082;-71
2021/01/09 07:20:42;;;;;;;39.20;24.40;;;;;;;;;;5048998;28;20025;-72
2021/01/09 07:23:09;;;;;;;41.88;25.45;;;;;;;;;;5049237;28;20043;-71
2021/01/09 07:25:38;;;;;;;40.00;24.63;;;;;;;;;;5052980;28;20401;-72
2021/01/09 07:28:06;;;;;;;38.15;23.83;;;;;;;;;;5051281;28;20036;-72
2021/01/09 07:30:31;;;;;;;35.80;24.13;;;;;;;;;;5038779;28;20418;-72
2021/01/09 07:32:58;;;;;;;37.05;24.05;;;;;;;;;;5041827;28;20028;-71
2021/01/09 07:35:25;;;;;;;33.88;21.85;;;;;;;;;;5051887;28;20021;-72
2021/01/09 07:37:52;;;;;;;35.22;23.08;;;;;;;;;;5039886;28;20029;-72
2021/01/09 07:40:19;;;;;;;57.78;30.67;;;;;;;;;;5053904;28;20024;-72
2021/01/09 07:42:46;;;;;;;61.95;33.95;;;;;;;;;;5054584;28;20479;-72
2021/01/09 07:45:15;;;;;;;54.22;29.38;;;;;;;;;;5055932;28;20020;-72
2021/01/09 07:47:41;;;;;;;38.50;25.95;;;;;;;;;;5055424;28;20119;-72
2021/01/09 07:50:07;;;;;;;38.55;24.02;;;;;;;;;;5048765;28;20084;-71
2021/01/09 07:52:35;;;;;;;35.20;23.23;;;;;;;;;;5045159;28;20426;-72
2021/01/09 07:55:02;;;;;;;34.53;21.92;;;;;;;;;;5042870;28;20095;-72
2021/01/09 07:57:27;;;;;;;33.67;21.85;;;;;;;;;;5040246;28;20092;-72
2021/01/09 07:59:53;;;;;;;29.33;20.45;;;;;;;;;;5046129;28;20025;-72
2021/01/09 08:02:38;;;;;;;31.42;20.50;;;;;;;;;;5046314;28;20047;-73
2021/01/09 08:05:07;;;;;;;30.40;20.42;;;;;;;;;;5045623;28;20029;-72
2021/01/09 08:07:53;;;;;;;29.85;19.95;;;;;;;;;;5054965;28;20009;-72
2021/01/09 08:10:25;;;;;;;33.78;21.15;;;;;;;;;;5044347;28;20029;-72
2021/01/09 08:12:56;;;;;;;32.17;20.88;;;;;;;;;;5042861;28;20452;-72
2021/01/09 08:15:22;;;;;;;35.20;21.50;;;;;;;;;;5044066;28;20422;-75
2021/01/09 08:17:47;;;;;;;31.63;21.42;;;;;;;;;;5044136;28;20108;-75
2021/01/09 08:20:15;;;;;;;37.95;24.00;;;;;;;;;;5039626;28;20028;-75
2021/01/09 08:22:56;;;;;;;39.92;23.70;;;;;;;;;;5042445;28;20021;-75
2021/01/09 08:25:22;;;;;;;27.23;17.33;;;;;;;;;;5040065;28;20576;-75
2021/01/09 08:27:52;;;;;;;36.42;21.10;;;;;;;;;;5042547;28;20471;-75
2021/01/09 08:30:20;;;;;;;36.92;21.50;;;;;;;;;;5041945;28;20103;-74
2021/01/09 08:32:45;;;;;;;31.33;19.35;;;;;;;;;;5039144;28;20108;-74
2021/01/09 08:35:12;;;;;;;35.42;19.98;;;;;;;;;;5056064;28;20103;-80
2021/01/09 08:37:39;;;;;;;34.60;20.80;;;;;;;;;;5047876;28;20415;-79
2021/01/09 08:40:10;;;;;;;35.58;22.55;;;;;;;;;;5051133;28;20029;-79
2021/01/09 08:42:50;;;;;;;33.92;20.70;;;;;;;;;;5054682;28;20424;-79
2021/01/09 08:45:33;;;;;;;33.47;21.15;;;;;;;;;;5054445;28;20033;-79
2021/01/09 08:48:01;;;;;;;38.83;23.00;;;;;;;;;;5043842;28;20559;-79
2021/01/09 08:50:29;;;;;;;34.38;22.00;;;;;;;;;;5055316;28;20028;-80
2021/01/09 08:52:58;;;;;;;38.47;23.40;;;;;;;;;;5050653;28;20044;-79
2021/01/09 08:55:26;;;;;;;41.20;24.98;;;;;;;;;;5034471;28;20438;-80
2021/01/09 08:57:52;;;;;;;42.55;25.70;;;;;;;;;;5048776;28;20013;-79
2021/01/09 09:00:18;;;;;;;41.05;25.40;;;;;;;;;;5054534;28;20533;-78
2021/01/09 09:02:47;;;;;;;37.83;24.52;;;;;;;;;;5053723;28;20021;-79
2021/01/09 09:05:14;;;;;;;36.22;22.40;;;;;;;;;;5038623;28;20346;-75
2021/01/09 09:07:41;;;;;;;35.90;23.20;;;;;;;;;;5041655;28;20016;-79
2021/01/09 09:10:12;;;;;;;36.38;22.63;;;;;;;;;;5045687;28;20033;-78
2021/01/09 09:12:39;;;;;;;27.80;16.55;;;;;;;;;;5045038;28;20040;-79
2021/01/09 09:15:09;;;;;;;30.88;17.58;;;;;;;;;;5036632;28;20460;-79
2021/01/09 09:17:36;;;;;;;30.73;18.63;;;;;;;;;;5033739;28;20029;-78
2021/01/09 09:20:02;;;;;;;46.20;26.10;;;;;;;;;;5033434;28;20075;-78
2021/01/09 09:22:29;;;;;;;42.05;24.63;;;;;;;;;;5034656;28;20639;-78
2021/01/09 09:24:54;;;;;;;41.45;23.73;;;;;;;;;;5034592;28;20428;-79
2021/01/09 09:27:23;;;;;;;37.42;23.45;;;;;;;;;;5034405;28;20110;-79
2021/01/09 09:29:48;;;;;;;37.50;23.38;;;;;;;;;;5033207;28;20028;-79
2021/01/09 09:32:23;;;;;;;36.65;22.08;;;;;;;;;;5034553;28;20025;-79
2021/01/09 09:34:49;;;;;;;35.00;21.08;;;;;;;;;;5034477;28;20478;-78
2021/01/09 09:37:14;;;;;;;37.22;21.63;;;;;;;;;;5033086;28;20028;-79
2021/01/09 09:39:40;;;;;;;40.28;22.15;;;;;;;;;;5033034;28;20432;-79
2021/01/09 09:42:05;;;;;;;42.70;23.15;;;;;;;;;;5034090;28;20017;-78
2021/01/09 09:44:34;;;;;;;34.20;19.63;;;;;;;;;;5033009;28;20030;-78
2021/01/09 09:47:00;;;;;;;21.70;13.38;;;;;;;;;;5033649;28;20416;-78
2021/01/09 09:49:27;;;;;;;22.38;13.55;;;;;;;;;;5034844;28;20100;-78
2021/01/09 09:51:53;;;;;;;19.13;13.18;;;;;;;;;;5034820;28;20026;-78
2021/01/09 09:54:31;;;;;;;21.05;13.77;;;;;;;;;;5016592;28;20103;-79
2021/01/09 09:56:58;;;;;;;25.00;16.27;;;;;;;;;;5034900;28;20028;-79
2021/01/09 09:59:28;;;;;;;20.92;12.95;;;;;;;;;;5034008;28;20456;-79
2021/01/09 10:02:00;;;;;;;22.27;13.63;;;;;;;;;;5033954;28;20363;-79
2021/01/09 10:04:26;;;;;;;22.85;13.95;;;;;;;;;;5018391;28;20029;-79
2021/01/09 10:06:52;;;;;;;20.73;13.70;;;;;;;;;;5035785;28;20501;-79
2021/01/09 10:09:20;;;;;;;21.70;14.98;;;;;;;;;;5035070;28;20033;-79
2021/01/09 10:11:46;;;;;;;25.95;16.73;;;;;;;;;;5034933;28;20033;-79
2021/01/09 10:14:12;;;;;;;21.55;13.25;;;;;;;;;;5034723;28;20029;-78
2021/01/09 10:16:38;;;;;;;23.52;14.40;;;;;;;;;;5034673;28;20088;-79
2021/01/09 10:19:04;;;;;;;23.15;15.05;;;;;;;;;;5035258;28;20055;-79
2021/01/09 10:21:31;;;;;;;24.15;15.57;;;;;;;;;;5035202;28;20021;-80
2021/01/09 10:23:56;;;;;;;26.02;15.63;;;;;;;;;;5017846;28;20029;-79
2021/01/09 10:26:25;;;;;;;36.45;17.70;;;;;;;;;;5035250;28;20020;-79
2021/01/09 10:28:51;;;;;;;29.00;18.52;;;;;;;;;;5034056;28;20079;-78
2021/01/09 10:31:16;;;;;;;30.38;19.45;;;;;;;;;;5034658;28;20029;-80
2021/01/09 10:33:42;;;;;;;28.08;17.70;;;;;;;;;;5018187;28;20119;-79
2021/01/09 10:36:07;;;;;;;24.33;15.80;;;;;;;;;;5034641;28;20017;-79
2021/01/09 10:38:33;;;;;;;24.10;14.65;;;;;;;;;;5034704;28;20064;-79
2021/01/09 10:40:58;;;;;;;29.05;17.10;;;;;;;;;;5036416;28;20018;-79
2021/01/09 10:43:25;;;;;;;33.97;19.45;;;;;;;;;;5037432;28;20025;-79
2021/01/09 10:45:50;;;;;;;38.35;21.52;;;;;;;;;;5036497;28;20021;-79
2021/01/09 10:48:16;;;;;;;30.85;18.17;;;;;;;;;;5036035;28;20550;-79
2021/01/09 10:50:41;;;;;;;25.40;15.20;;;;;;;;;;5019791;28;20034;-79
2021/01/09 10:53:07;;;;;;;30.20;18.38;;;;;;;;;;5035932;28;20041;-80
2021/01/09 10:55:34;;;;;;;32.53;19.50;;;;;;;;;;5038210;28;20030;-79
2021/01/09 10:57:59;;;;;;;44.72;23.65;;;;;;;;;;5034931;28;20017;-79
2021/01/09 11:00:26;;;;;;;39.20;22.85;;;;;;;;;;5034757;28;20025;-79
2021/01/09 11:02:51;;;;;;;32.42;19.42;;;;;;;;;;5033910;28;20392;-78
2021/01/09 11:05:18;;;;;;;32.42;18.35;;;;;;;;;;5033549;28;20029;-78
2021/01/09 11:07:44;;;;;;;27.58;17.58;;;;;;;;;;5033993;28;20037;-78
2021/01/09 11:10:10;;;;;;;28.27;16.75;;;;;;;;;;5033891;28;20043;-79
2021/01/09 11:12:35;;;;;;;40.72;24.05;;;;;;;;;;5015698;28;20120;-78
2021/01/09 11:15:01;;;;;;;28.98;18.35;;;;;;;;;;5033798;28;20021;-78
2021/01/09 11:17:29;;;;;;;39.85;21.85;;;;;;;;;;5037036;28;20364;-79
2021/01/09 11:19:54;;;;;;;49.75;23.38;;;;;;;;;;5035883;28;20476;-78
2021/01/09 11:22:20;;;;;;;36.22;21.50;;;;;;;;;;5036934;28;20033;-78
2021/01/09 11:24:45;;;;;;;34.30;21.45;;;;;;;;;;5019207;28;20200;-79
2021/01/09 11:27:11;;;;;;;37.42;21.70;;;;;;;;;;5035542;28;20028;-79
2021/01/09 11:29:36;;;;;;;22.38;12.30;;;;;;;;;;5035573;28;20792;-79
2021/01/09 11:32:03;;;;;;;29.48;18.27;;;;;;;;;;5036660;28;20436;-78
2021/01/09 11:34:30;;;;;;;32.85;18.95;;;;;;;;;;5034968;28;20037;-77
2021/01/09 11:36:56;;;;;;;41.67;23.00;;;;;;;;;;5034226;28;20497;-78
2021/01/09 11:39:22;;;;;;;35.70;22.52;;;;;;;;;;5036161;28;20097;-78
2021/01/09 11:41:49;;;;;;;34.35;20.08;;;;;;;;;;5036713;28;20076;-78
2021/01/09 11:44:15;;;;;;;28.48;15.13;;;;;;;;;;5035151;28;20124;-78
2021/01/09 11:46:41;;;;;;;37.50;21.65;;;;;;;;;;5036564;28;20056;-78
2021/01/09 11:49:07;;;;;;;38.42;21.92;;;;;;;;;;5035392;28;20052;-78
2021/01/09 11:51:34;;;;;;;32.10;17.98;;;;;;;;;;5036704;28;20029;-78
2021/01/09 11:54:01;;;;;;;24.88;15.55;;;;;;;;;;5035881;28;20045;-78
2021/01/09 11:56:27;;;;;;;26.80;16.52;;;;;;;;;;5018717;28;20559;-78
2021/01/09 11:58:52;;;;;;;27.38;16.33;;;;;;;;;;5035999;28;20060;-78
2021/01/09 12:01:19;;;;;;;30.08;16.73;;;;;;;;;;5035304;28;20472;-79
2021/01/09 12:03:44;;;;;;;34.05;19.77;;;;;;;;;;5035992;28;20025;-78
2021/01/09 12:06:15;;;;;;;24.75;14.05;;;;;;;;;;5035319;28;20040;-78
2021/01/09 12:08:43;;;;;;;;;;;;;;;;;;5036669;28;20034;-78
2021/01/09 12:11:08;;;;;;;23.85;14.43;;;;;;;;;;5036308;28;19905;-78
2021/01/09 12:13:35;;;;;;;23.30;14.63;;;;;;;;;;5034995;28;20049;-78
2021/01/09 12:16:06;;;;;;;22.40;12.40;;;;;;;;;;5036630;28;20025;-79
2021/01/09 12:18:32;;;;;;;28.67;17.48;;;;;;;;;;5035758;28;20491;-73
2021/01/09 12:20:58;;;;;;;28.52;17.83;;;;;;;;;;5035922;28;20053;-73
2021/01/09 12:23:27;;;;;;;29.35;18.95;;;;;;;;;;5036153;28;20029;-73
2021/01/09 12:25:53;;;;;;;25.55;15.77;;;;;;;;;;5035706;28;20498;-73
2021/01/09 12:28:18;;;;;;;23.13;15.55;;;;;;;;;;5035495;28;20029;-73
2021/01/09 12:30:47;;;;;;;21.27;14.30;;;;;;;;;;5036153;28;20101;-74
2021/01/09 12:33:12;;;;;;;21.17;15.23;;;;;;;;;;5034773;28;20040;-74
2021/01/09 12:35:38;;;;;;;16.85;12.90;;;;;;;;;;5035672;28;20087;-74
2021/01/09 12:38:03;;;;;;;16.10;11.25;;;;;;;;;;5035687;28;20013;-74
2021/01/09 12:40:29;;;;;;;20.30;14.25;;;;;;;;;;5035589;28;20079;-74
2021/01/09 12:42:54;;;;;;;20.25;14.43;;;;;;;;;;5035467;28;20017;-74
2021/01/09 12:45:20;;;;;;;17.98;13.57;;;;;;;;;;5034705;28;20040;-74
2021/01/09 12:47:46;;;;;;;19.35;14.27;;;;;;;;;;5018305;28;20484;-59
2021/01/09 12:50:11;;;;;;;15.65;11.75;;;;;;;;;;5035716;28;20075;-73
2021/01/09 12:52:37;;;;;;;18.00;13.13;;;;;;;;;;5036595;28;20116;-73
2021/01/09 12:55:03;;;;;;;18.92;13.20;;;;;;;;;;5038235;28;20496;-74
2021/01/09 12:57:29;;;;;;;16.55;11.05;;;;;;;;;;5035046;28;20033;-74
2021/01/09 12:59:54;;;;;;;14.82;11.05;;;;;;;;;;5033970;28;20025;-75
2021/01/09 13:02:20;;;;;;;16.40;11.43;;;;;;;;;;5033854;28;20022;-75
2021/01/09 13:04:48;;;;;;;16.60;12.20;;;;;;;;;;5035071;28;20025;-74
2021/01/09 13:07:13;;;;;;;17.92;12.00;;;;;;;;;;5035205;28;20480;-74
2021/01/09 13:09:39;;;;;;;14.02;9.45;;;;;;;;;;5017270;28;20061;-76
2021/01/09 13:12:06;;;;;;;16.60;11.60;;;;;;;;;;5034042;28;20487;-74
2021/01/09 13:14:32;;;;;;;16.67;8.95;;;;;;;;;;5033507;28;20044;-69
2021/01/09 13:16:58;;;;;;;15.73;10.43;;;;;;;;;;5034789;28;20017;-69
2021/01/09 13:19:25;;;;;;;16.40;9.52;;;;;;;;;;5034727;28;20083;-69
2021/01/09 13:21:54;;;;;;;14.65;8.15;;;;;;;;;;5034591;28;20025;-69
2021/01/09 13:24:20;;;;;;;16.60;11.15;;;;;;;;;;5034110;28;20045;-69
2021/01/09 13:26:45;;;;;;;13.55;8.93;;;;;;;;;;5034531;28;20048;-69
2021/01/09 13:29:11;;;;;;;13.02;9.48;;;;;;;;;;5034527;28;20496;-68
2021/01/09 13:31:39;;;;;;;13.15;9.30;;;;;;;;;;5033288;28;20025;-69
2021/01/09 13:34:04;;;;;;;14.57;10.15;;;;;;;;;;5034462;28;20030;-69
2021/01/09 13:36:31;;;;;;;12.88;9.60;;;;;;;;;;5032601;28;20483;-69
2021/01/09 13:38:56;;;;;;;11.48;8.00;;;;;;;;;;5033865;28;20053;-69
2021/01/09 13:41:22;;;;;;;11.32;7.30;;;;;;;;;;5034194;28;20045;-69
2021/01/09 13:43:47;;;;;;;10.90;8.00;;;;;;;;;;5034207;28;20036;-69
2021/01/09 13:46:24;;;;;;;8.18;7.30;;;;;;;;;;5034103;28;20028;-69
2021/01/09 13:48:53;;;;;;;9.60;7.05;;;;;;;;;;5034118;28;20484;-69
2021/01/09 13:51:29;;;;;;;11.90;8.32;;;;;;;;;;5032925;28;20036;-69
2021/01/09 13:53:57;;;;;;;12.48;9.95;;;;;;;;;;5032294;28;20400;-68
2021/01/09 13:56:37;;;;;;;12.00;7.95;;;;;;;;;;5032764;28;20036;-68
2021/01/09 13:59:11;;;;;;;11.50;8.53;;;;;;;;;;5034011;28;20025;-68
2021/01/09 14:01:37;;;;;;;17.70;13.48;;;;;;;;;;5033888;28;20778;-68
2021/01/09 14:04:06;;;;;;;15.52;12.35;;;;;;;;;;5033982;28;20013;-68
2021/01/09 14:06:32;;;;;;;12.05;9.35;;;;;;;;;;5033929;28;20435;-69
2021/01/09 14:08:57;;;;;;;8.77;6.53;;;;;;;;;;5033798;28;20026;-68
2021/01/09 14:11:24;;;;;;;9.52;7.18;;;;;;;;;;5033657;28;20021;-69
2021/01/09 14:13:52;;;;;;;7.60;6.57;;;;;;;;;;5032342;28;20060;-69
2021/01/09 14:16:20;;;;;;;6.47;5.72;;;;;;;;;;5032309;28;20025;-69
2021/01/09 14:18:46;;;;;;;5.57;5.07;;;;;;;;;;5033507;28;20022;-69
2021/01/09 14:21:11;;;;;;;6.00;5.40;;;;;;;;;;5033460;28;20032;-69
2021/01/09 14:23:37;;;;;;;6.43;5.80;;;;;;;;;;5033617;28;20026;-69
2021/01/09 14:26:02;;;;;;;4.93;4.43;;;;;;;;;;5032130;28;20519;-69